Time;durP1;ratioP1;P1;durP2;ratioP2;P2;SDS_P1;SDS_P2;PMS_P1;PMS_P2;Temp;Humidity;BMP_temperature;BMP_pressure;BME280_temperature;BME280_humidity;BME280_pressure;Samples;Min_cycle;Max_cycle;Signal;HPM_P1;HPM_P2
2021/06/10 00:02:12;;;;;;;3.27;2.97;;;;;;;20.29;63.68;100834.23;;;;-56
2021/06/10 00:05:12;;;;;;;3.37;3.08;;;;;;;20.29;63.62;100832.28;;;;-56
2021/06/10 00:08:12;;;;;;;3.12;2.92;;;;;;;20.28;63.65;100831.16;;;;-56
2021/06/10 00:11:12;;;;;;;3.35;3.05;;;;;;;20.28;63.66;100828.46;;;;-49
2021/06/10 00:14:14;;;;;;;3.44;3.03;;;;;;;20.28;63.68;100826.76;;;;-49
2021/06/10 00:17:12;;;;;;;3.13;2.89;;;;;;;20.27;63.66;100825.10;;;;-51
2021/06/10 00:20:12;;;;;;;3.25;2.98;;;;;;;20.27;63.72;100832.42;;;;-59
2021/06/10 00:23:13;;;;;;;3.33;3.00;;;;;;;20.27;63.67;100833.23;;;;-59
2021/06/10 00:26:12;;;;;;;3.12;2.83;;;;;;;20.27;63.69;100832.27;;;;-51
2021/06/10 00:29:12;;;;;;;3.15;2.91;;;;;;;20.26;63.72;100836.34;;;;-51
2021/06/10 00:32:13;;;;;;;3.10;2.80;;;;;;;20.26;63.73;100836.98;;;;-49
2021/06/10 00:35:13;;;;;;;3.28;3.00;;;;;;;20.26;63.75;100840.25;;;;-49
2021/06/10 00:38:12;;;;;;;3.00;2.80;;;;;;;20.26;63.71;100835.36;;;;-49
2021/06/10 00:41:12;;;;;;;3.17;2.89;;;;;;;20.25;63.72;100828.45;;;;-49
2021/06/10 00:44:12;;;;;;;3.09;2.79;;;;;;;20.25;63.69;100825.25;;;;-57
2021/06/10 00:47:12;;;;;;;3.03;2.83;;;;;;;20.25;63.70;100823.37;;;;-56
2021/06/10 00:50:12;;;;;;;3.23;2.99;;;;;;;20.25;63.73;100824.52;;;;-59
2021/06/10 00:53:21;;;;;;;3.03;2.83;;;;;;;20.24;63.71;100825.82;;;;-59
2021/06/10 00:56:12;;;;;;;3.09;2.89;;;;;;;20.24;63.71;100826.55;;;;-60
2021/06/10 00:59:12;;;;;;;3.00;2.80;;;;;;;20.24;63.75;100833.39;;;;-51
2021/06/10 01:02:12;;;;;;;3.03;2.81;;;;;;;20.23;63.75;100835.75;;;;-57
2021/06/10 01:05:12;;;;;;;3.18;2.88;;;;;;;20.23;63.72;100835.73;;;;-56
2021/06/10 01:08:12;;;;;;;3.17;2.93;;;;;;;20.23;63.69;100834.50;;;;-56
2021/06/10 01:11:12;;;;;;;2.96;2.76;;;;;;;20.23;63.71;100837.36;;;;-57
2021/06/10 01:14:12;;;;;;;3.38;3.09;;;;;;;20.23;63.61;100841.09;;;;-57
2021/06/10 01:17:12;;;;;;;3.14;2.94;;;;;;;20.22;63.70;100834.91;;;;-57
2021/06/10 01:20:12;;;;;;;2.97;2.74;;;;;;;20.22;63.69;100834.27;;;;-56
2021/06/10 01:23:12;;;;;;;3.35;3.07;;;;;;;20.21;63.64;100827.92;;;;-49
2021/06/10 01:26:12;;;;;;;3.21;2.96;;;;;;;20.21;63.62;100825.31;;;;-49
2021/06/10 01:29:12;;;;;;;3.11;2.90;;;;;;;20.21;63.56;100827.89;;;;-51
2021/06/10 01:32:12;;;;;;;2.99;2.79;;;;;;;20.21;63.63;100829.11;;;;-51
2021/06/10 01:35:12;;;;;;;3.04;2.84;;;;;;;20.21;63.66;100830.20;;;;-56
2021/06/10 01:38:12;;;;;;;3.17;2.97;;;;;;;20.20;63.57;100828.39;;;;-56
2021/06/10 01:41:12;;;;;;;2.89;2.69;;;;;;;20.20;63.60;100827.90;;;;-56
2021/06/10 01:44:12;;;;;;;3.03;2.83;;;;;;;20.20;63.57;100826.44;;;;-56
2021/06/10 01:47:12;;;;;;;2.84;2.64;;;;;;;20.20;63.57;100824.81;;;;-49
2021/06/10 01:50:13;;;;;;;3.05;2.85;;;;;;;20.19;63.59;100822.86;;;;-51
2021/06/10 01:53:14;;;;;;;3.06;2.83;;;;;;;20.19;63.63;100829.94;;;;-51
2021/06/10 01:56:12;;;;;;;3.03;2.83;;;;;;;20.19;63.58;100832.19;;;;-51
2021/06/10 01:59:12;;;;;;;3.16;2.96;;;;;;;20.19;63.52;100832.30;;;;-51
2021/06/10 02:02:12;;;;;;;3.25;2.99;;;;;;;20.19;63.56;100830.16;;;;-51
2021/06/10 02:05:12;;;;;;;3.23;2.93;;;;;;;20.19;63.57;100830.80;;;;-51
2021/06/10 02:08:12;;;;;;;3.03;2.83;;;;;;;20.19;63.57;100825.77;;;;-59
2021/06/10 02:11:12;;;;;;;2.94;2.74;;;;;;;20.18;63.52;100823.08;;;;-59
2021/06/10 02:14:12;;;;;;;3.11;2.91;;;;;;;20.17;63.47;100824.06;;;;-59
2021/06/10 02:17:12;;;;;;;3.18;2.91;;;;;;;20.18;63.59;100827.06;;;;-59
2021/06/10 02:20:12;;;;;;;3.08;2.85;;;;;;;20.17;63.54;100828.12;;;;-49
2021/06/10 02:23:12;;;;;;;3.05;2.85;;;;;;;20.17;63.47;100822.92;;;;-49
2021/06/10 02:26:12;;;;;;;3.06;2.86;;;;;;;20.17;63.50;100822.67;;;;-56
2021/06/10 02:29:12;;;;;;;3.01;2.81;;;;;;;20.17;63.44;100817.77;;;;-56
2021/06/10 02:32:12;;;;;;;3.01;2.78;;;;;;;20.16;63.51;100818.26;;;;-56
2021/06/10 02:35:12;;;;;;;2.90;2.70;;;;;;;20.16;63.49;100817.69;;;;-56
2021/06/10 02:38:12;;;;;;;2.99;2.78;;;;;;;20.16;63.49;100815.58;;;;-55
2021/06/10 02:41:12;;;;;;;2.93;2.73;;;;;;;20.16;63.46;100817.03;;;;-56
2021/06/10 02:44:12;;;;;;;3.01;2.79;;;;;;;20.16;63.45;100816.55;;;;-59
2021/06/10 02:47:12;;;;;;;3.13;2.90;;;;;;;20.15;63.48;100819.48;;;;-59
2021/06/10 02:50:12;;;;;;;2.95;2.75;;;;;;;20.16;63.40;100822.33;;;;-56
2021/06/10 02:53:15;;;;;;;2.96;2.76;;;;;;;20.16;63.40;100827.86;;;;-51
2021/06/10 02:56:12;;;;;;;2.83;2.63;;;;;;;20.15;63.41;100826.48;;;;-56
2021/06/10 02:59:12;;;;;;;3.17;2.97;;;;;;;20.15;63.44;100825.99;;;;-56
2021/06/10 03:02:12;;;;;;;2.83;2.63;;;;;;;20.15;63.46;100823.84;;;;-56
2021/06/10 03:05:12;;;;;;;2.91;2.71;;;;;;;20.15;63.40;100823.93;;;;-56
2021/06/10 03:08:12;;;;;;;2.95;2.75;;;;;;;20.14;63.38;100825.31;;;;-56
2021/06/10 03:11:12;;;;;;;2.95;2.75;;;;;;;20.14;63.41;100823.45;;;;-56
2021/06/10 03:14:12;;;;;;;2.79;2.59;;;;;;;20.14;63.39;100829.71;;;;-56
2021/06/10 03:17:12;;;;;;;2.96;2.76;;;;;;;20.14;63.39;100831.42;;;;-51
2021/06/10 03:20:12;;;;;;;3.01;2.81;;;;;;;20.14;63.40;100828.49;;;;-51
2021/06/10 03:23:12;;;;;;;2.89;2.69;;;;;;;20.13;63.40;100833.30;;;;-51
2021/06/10 03:26:12;;;;;;;3.10;2.82;;;;;;;20.14;63.33;100834.19;;;;-49
2021/06/10 03:29:12;;;;;;;3.04;2.84;;;;;;;20.14;63.38;100831.42;;;;-49
2021/06/10 03:32:12;;;;;;;2.91;2.71;;;;;;;20.13;63.39;100834.41;;;;-49
2021/06/10 03:35:12;;;;;;;3.05;2.85;;;;;;;20.13;63.38;100834.00;;;;-56
2021/06/10 03:38:14;;;;;;;2.99;2.77;;;;;;;20.13;63.42;100840.67;;;;-56
2021/06/10 03:41:12;;;;;;;3.05;2.85;;;;;;;20.13;63.36;100839.89;;;;-49
2021/06/10 03:44:14;;;;;;;2.89;2.69;;;;;;;20.12;63.36;100844.50;;;;-49
2021/06/10 03:47:12;;;;;;;2.91;2.71;;;;;;;20.12;63.47;100843.94;;;;-51
2021/06/10 03:50:12;;;;;;;2.99;2.79;;;;;;;20.12;63.29;100842.39;;;;-51
2021/06/10 03:53:12;;;;;;;3.02;2.82;;;;;;;20.12;63.33;100840.19;;;;-51
2021/06/10 03:56:12;;;;;;;2.98;2.72;;;;;;;20.11;63.37;100842.06;;;;-49
2021/06/10 03:59:12;;;;;;;2.79;2.59;;;;;;;20.11;63.39;100843.58;;;;-49
2021/06/10 04:02:12;;;;;;;2.89;2.69;;;;;;;20.11;63.36;100842.23;;;;-49
2021/06/10 04:05:12;;;;;;;2.97;2.77;;;;;;;20.10;63.41;100837.08;;;;-59
2021/06/10 04:08:12;;;;;;;2.80;2.60;;;;;;;20.10;63.28;100841.72;;;;-59
2021/06/10 04:11:12;;;;;;;2.90;2.70;;;;;;;20.11;63.30;100844.07;;;;-60
2021/06/10 04:14:12;;;;;;;2.70;2.50;;;;;;;20.10;63.31;100843.83;;;;-59
2021/06/10 04:17:12;;;;;;;2.73;2.53;;;;;;;20.09;63.29;100844.41;;;;-59
2021/06/10 04:20:12;;;;;;;2.75;2.55;;;;;;;20.09;63.30;100848.96;;;;-59
2021/06/10 04:23:12;;;;;;;2.80;2.60;;;;;;;20.09;63.32;100847.09;;;;-56
2021/06/10 04:26:12;;;;;;;2.77;2.57;;;;;;;20.09;63.29;100849.69;;;;-49
2021/06/10 04:29:12;;;;;;;2.89;2.69;;;;;;;20.08;63.37;100849.74;;;;-49
2021/06/10 04:32:12;;;;;;;2.90;2.70;;;;;;;20.08;63.30;100851.13;;;;-56
2021/06/10 04:35:12;;;;;;;2.79;2.59;;;;;;;20.08;63.32;100844.21;;;;-49
2021/06/10 04:38:14;;;;;;;2.86;2.66;;;;;;;20.09;63.28;100841.88;;;;-49
2021/06/10 04:41:12;;;;;;;2.98;2.78;;;;;;;20.08;63.39;100843.73;;;;-59
2021/06/10 04:44:12;;;;;;;2.64;2.44;;;;;;;20.07;63.26;100841.94;;;;-59
2021/06/10 04:47:12;;;;;;;3.02;2.82;;;;;;;20.07;63.26;100843.89;;;;-56
2021/06/10 04:50:12;;;;;;;2.71;2.51;;;;;;;20.08;63.26;100847.88;;;;-51
2021/06/10 04:53:13;;;;;;;2.70;2.50;;;;;;;20.07;63.26;100845.68;;;;-59
2021/06/10 04:56:12;;;;;;;2.72;2.52;;;;;;;20.07;63.32;100846.58;;;;-51
2021/06/10 04:59:13;;;;;;;2.80;2.60;;;;;;;20.07;63.29;100849.84;;;;-51
2021/06/10 05:02:12;;;;;;;2.71;2.51;;;;;;;20.06;63.32;100849.81;;;;-56
2021/06/10 05:05:12;;;;;;;2.83;2.63;;;;;;;20.07;63.25;100848.05;;;;-59
2021/06/10 05:08:12;;;;;;;2.64;2.44;;;;;;;20.06;63.28;100847.94;;;;-60
2021/06/10 05:11:12;;;;;;;2.75;2.55;;;;;;;20.06;63.33;100851.52;;;;-49
2021/06/10 05:14:12;;;;;;;2.83;2.63;;;;;;;20.06;63.31;100854.77;;;;-59
2021/06/10 05:17:12;;;;;;;2.73;2.53;;;;;;;20.06;63.32;100854.45;;;;-51
2021/06/10 05:20:12;;;;;;;2.70;2.50;;;;;;;20.05;63.25;100847.13;;;;-51
2021/06/10 05:23:12;;;;;;;2.59;2.39;;;;;;;20.05;63.32;100848.92;;;;-59
2021/06/10 05:26:12;;;;;;;2.66;2.46;;;;;;;20.05;63.33;100849.24;;;;-49
2021/06/10 05:29:12;;;;;;;2.41;2.21;;;;;;;20.05;63.32;100850.79;;;;-59
2021/06/10 05:32:12;;;;;;;2.68;2.48;;;;;;;20.04;63.25;100850.35;;;;-51
2021/06/10 05:35:12;;;;;;;2.90;2.70;;;;;;;20.05;63.33;100853.23;;;;-59
2021/06/10 05:38:12;;;;;;;2.71;2.51;;;;;;;20.05;63.36;100853.88;;;;-51
2021/06/10 05:41:12;;;;;;;2.61;2.41;;;;;;;20.04;63.32;100848.89;;;;-59
2021/06/10 05:44:12;;;;;;;2.65;2.45;;;;;;;20.05;63.34;100850.95;;;;-49
2021/06/10 05:47:12;;;;;;;2.62;2.42;;;;;;;20.04;63.33;100855.48;;;;-56
2021/06/10 05:50:12;;;;;;;2.59;2.39;;;;;;;20.04;63.24;100858.81;;;;-56
2021/06/10 05:53:15;;;;;;;2.59;2.39;;;;;;;20.04;63.21;100856.13;;;;-49
2021/06/10 05:56:12;;;;;;;2.65;2.45;;;;;;;20.04;63.21;100858.41;;;;-49
2021/06/10 05:59:12;;;;;;;2.69;2.49;;;;;;;20.04;63.24;100861.34;;;;-49
2021/06/10 06:02:12;;;;;;;2.55;2.35;;;;;;;20.04;63.24;100866.06;;;;-48
2021/06/10 06:05:12;;;;;;;2.59;2.39;;;;;;;20.04;63.21;100863.45;;;;-49
2021/06/10 06:08:13;;;;;;;2.68;2.48;;;;;;;20.04;63.20;100866.30;;;;-51
2021/06/10 06:11:12;;;;;;;2.60;2.40;;;;;;;20.03;63.19;100866.55;;;;-51
2021/06/10 06:14:14;;;;;;;2.42;2.24;;;;;;;20.03;63.26;100866.80;;;;-49
2021/06/10 06:17:12;;;;;;;2.63;2.43;;;;;;;20.03;63.15;100864.44;;;;-49
2021/06/10 06:20:12;;;;;;;2.60;2.40;;;;;;;20.03;63.21;100866.80;;;;-56
2021/06/10 06:23:12;;;;;;;2.75;2.39;;;;;;;20.03;63.22;100866.71;;;;-56
2021/06/10 06:26:12;;;;;;;2.56;2.36;;;;;;;20.02;63.18;100867.91;;;;-56
2021/06/10 06:29:12;;;;;;;2.33;2.17;;;;;;;20.03;63.19;100869.31;;;;-56
2021/06/10 06:32:12;;;;;;;2.47;2.27;;;;;;;20.03;63.18;100870.21;;;;-51
2021/06/10 06:35:12;;;;;;;2.46;2.28;;;;;;;20.02;63.18;100870.19;;;;-50
2021/06/10 06:38:12;;;;;;;2.62;2.42;;;;;;;20.03;63.19;100873.06;;;;-50
2021/06/10 06:41:12;;;;;;;2.70;2.50;;;;;;;20.02;63.20;100867.98;;;;-48
2021/06/10 06:44:12;;;;;;;2.58;2.38;;;;;;;20.03;63.12;100871.44;;;;-56
2021/06/10 06:47:12;;;;;;;2.43;2.23;;;;;;;20.01;63.17;100869.05;;;;-49
2021/06/10 06:50:12;;;;;;;2.50;2.30;;;;;;;20.03;63.10;100875.34;;;;-55
2021/06/10 06:53:12;;;;;;;2.48;2.28;;;;;;;20.02;63.15;100881.66;;;;-58
2021/06/10 06:56:12;;;;;;;2.51;2.31;;;;;;;20.02;63.14;100881.49;;;;-58
2021/06/10 06:59:12;;;;;;;2.73;2.53;;;;;;;20.02;63.15;100878.56;;;;-59
2021/06/10 07:02:12;;;;;;;2.49;2.29;;;;;;;20.02;63.11;100879.95;;;;-56
2021/06/10 07:05:12;;;;;;;2.43;2.23;;;;;;;20.02;63.08;100875.23;;;;-56
2021/06/10 07:08:12;;;;;;;2.39;2.19;;;;;;;20.02;63.13;100879.22;;;;-54
2021/06/10 07:11:13;;;;;;;2.69;2.49;;;;;;;20.03;63.12;100881.20;;;;-54
2021/06/10 07:14:12;;;;;;;2.59;2.39;;;;;;;20.02;63.05;100884.09;;;;-56
2021/06/10 07:17:12;;;;;;;2.44;2.24;;;;;;;20.02;63.10;100882.88;;;;-56
2021/06/10 07:20:13;;;;;;;2.61;2.41;;;;;;;20.02;63.08;100888.66;;;;-56
2021/06/10 07:23:12;;;;;;;2.46;2.27;;;;;;;20.02;63.06;100887.19;;;;-56
2021/06/10 07:26:12;;;;;;;2.29;2.18;;;;;;;20.02;63.00;100885.16;;;;-56
2021/06/10 07:29:12;;;;;;;2.61;2.41;;;;;;;20.02;63.08;100888.66;;;;-49
2021/06/10 07:32:12;;;;;;;2.71;2.51;;;;;;;20.02;63.01;100887.52;;;;-49
2021/06/10 07:35:12;;;;;;;2.34;2.15;;;;;;;20.02;63.07;100889.30;;;;-49
2021/06/10 07:38:13;;;;;;;2.47;2.27;;;;;;;20.03;63.07;100885.91;;;;-49
2021/06/10 07:41:12;;;;;;;2.54;2.34;;;;;;;20.02;63.03;100887.92;;;;-49
2021/06/10 07:44:12;;;;;;;2.54;2.34;;;;;;;20.02;63.03;100888.08;;;;-49
2021/06/10 07:47:13;;;;;;;2.58;2.38;;;;;;;20.02;62.98;100889.88;;;;-49
2021/06/10 07:50:12;;;;;;;2.47;2.27;;;;;;;20.02;63.02;100891.91;;;;-51
2021/06/10 07:53:12;;;;;;;2.49;2.29;;;;;;;20.01;63.01;100886.78;;;;-49
2021/06/10 07:56:12;;;;;;;2.61;2.41;;;;;;;20.02;63.00;100890.28;;;;-49
2021/06/10 07:59:13;;;;;;;2.59;2.39;;;;;;;20.02;63.39;100891.58;;;;-50
2021/06/10 08:02:12;;;;;;;3.07;2.54;;;;;;;20.03;63.59;100888.03;;;;-50
2021/06/10 08:05:12;;;;;;;2.91;2.53;;;;;;;20.04;63.44;100893.31;;;;-51
2021/06/10 08:08:12;;;;;;;3.34;2.49;;;;;;;20.05;63.64;100893.98;;;;-52
2021/06/10 08:11:12;;;;;;;2.73;2.46;;;;;;;20.06;63.59;100893.25;;;;-50
2021/06/10 08:14:12;;;;;;;3.84;2.41;;;;;;;20.07;63.67;100896.53;;;;-61
2021/06/10 08:17:12;;;;;;;3.53;2.65;;;;;;;20.07;63.71;100896.05;;;;-57
2021/06/10 08:20:13;;;;;;;3.74;2.41;;;;;;;20.08;63.78;100898.32;;;;-64
2021/06/10 08:23:12;;;;;;;2.63;2.39;;;;;;;20.09;63.81;100898.67;;;;-52
2021/06/10 08:26:12;;;;;;;3.76;2.29;;;;;;;20.11;63.99;100895.77;;;;-55
2021/06/10 08:29:12;;;;;;;2.69;2.31;;;;;;;20.13;63.96;100893.67;;;;-56
2021/06/10 08:32:12;;;;;;;2.55;2.29;;;;;;;20.15;64.07;100896.11;;;;-49
2021/06/10 08:35:12;;;;;;;6.46;2.53;;;;;;;20.18;64.34;100894.28;;;;-51
2021/06/10 08:38:12;;;;;;;3.73;2.75;;;;;;;20.18;64.34;100895.42;;;;-49
2021/06/10 08:41:12;;;;;;;3.21;2.69;;;;;;;20.19;64.48;100896.42;;;;-56
2021/06/10 08:44:12;;;;;;;4.71;2.63;;;;;;;20.19;64.25;100891.92;;;;-55
2021/06/10 08:47:13;;;;;;;3.62;2.55;;;;;;;20.19;64.32;100892.11;;;;-52
2021/06/10 08:50:13;;;;;;;2.69;2.49;;;;;;;20.21;64.21;100893.33;;;;-49
2021/06/10 08:53:12;;;;;;;3.77;2.75;;;;;;;20.22;64.49;100889.93;;;;-54
2021/06/10 08:56:12;;;;;;;5.10;2.60;;;;;;;20.24;64.64;100892.06;;;;-57
2021/06/10 08:59:12;;;;;;;5.42;2.80;;;;;;;20.25;64.53;100882.70;;;;-50
2021/06/10 09:02:12;;;;;;;7.59;2.88;;;;;;;20.25;64.55;100881.19;;;;-51
2021/06/10 09:05:12;;;;;;;8.53;2.63;;;;;;;20.26;64.55;100878.66;;;;-53
2021/06/10 09:08:12;;;;;;;4.60;2.72;;;;;;;20.27;64.41;100879.47;;;;-51
2021/06/10 09:11:12;;;;;;;3.71;2.69;;;;;;;20.28;64.50;100882.27;;;;-53
2021/06/10 09:14:12;;;;;;;5.11;2.76;;;;;;;20.29;64.60;100878.76;;;;-48
2021/06/10 09:17:12;;;;;;;3.21;2.71;;;;;;;20.30;64.42;100877.56;;;;-49
2021/06/10 09:20:12;;;;;;;3.23;2.58;;;;;;;20.30;64.56;100883.75;;;;-52
2021/06/10 09:23:12;;;;;;;3.30;2.88;;;;;;;20.32;64.46;100881.89;;;;-50
2021/06/10 09:26:13;;;;;;;4.23;2.69;;;;;;;20.33;64.52;100881.97;;;;-49
2021/06/10 09:29:12;;;;;;;3.05;2.61;;;;;;;20.34;64.30;100881.27;;;;-58
2021/06/10 09:32:12;;;;;;;4.01;2.79;;;;;;;20.35;64.24;100880.04;;;;-58
2021/06/10 09:35:12;;;;;;;5.65;2.76;;;;;;;20.36;64.36;100877.67;;;;-60
2021/06/10 09:38:15;;;;;;;3.51;2.62;;;;;;;20.37;64.17;100873.88;;;;-57
2021/06/10 09:41:12;;;;;;;3.63;2.72;;;;;;;20.39;64.37;100874.14;;;;-50
2021/06/10 09:44:12;;;;;;;5.77;2.75;;;;;;;20.39;64.32;100873.48;;;;-50
2021/06/10 09:47:12;;;;;;;3.21;2.77;;;;;;;20.40;64.40;100873.31;;;;-53
2021/06/10 09:50:12;;;;;;;5.03;2.59;;;;;;;20.41;64.42;100873.27;;;;-51
2021/06/10 09:53:14;;;;;;;5.45;2.53;;;;;;;20.41;64.19;100871.63;;;;-57
2021/06/10 09:56:13;;;;;;;4.86;2.50;;;;;;;20.41;64.37;100867.23;;;;-51
2021/06/10 09:59:12;;;;;;;3.14;2.38;;;;;;;20.41;64.20;100865.28;;;;-57
2021/06/10 10:02:12;;;;;;;2.99;2.57;;;;;;;20.43;64.16;100863.83;;;;-52
2021/06/10 10:05:12;;;;;;;5.99;2.79;;;;;;;20.43;64.21;100862.12;;;;-49
2021/06/10 10:08:14;;;;;;;7.20;2.98;;;;;;;20.44;64.37;100859.78;;;;-52
2021/06/10 10:11:14;;;;;;;5.38;2.69;;;;;;;20.46;64.32;100854.27;;;;-50
2021/06/10 10:14:13;;;;;;;6.46;2.83;;;;;;;20.46;64.29;100849.80;;;;-52
2021/06/10 10:17:12;;;;;;;3.83;2.69;;;;;;;20.47;64.02;100846.53;;;;-52
2021/06/10 10:20:15;;;;;;;6.13;2.77;;;;;;;20.47;64.26;100846.45;;;;-53
2021/06/10 10:23:12;;;;;;;5.50;2.63;;;;;;;20.47;64.15;100843.27;;;;-54
2021/06/10 10:26:12;;;;;;;4.29;2.71;;;;;;;20.47;64.13;100838.39;;;;-52
2021/06/10 10:29:13;;;;;;;4.29;2.85;;;;;;;20.49;64.36;100839.14;;;;-61
2021/06/10 10:32:12;;;;;;;3.45;2.73;;;;;;;20.48;64.09;100838.25;;;;-53
2021/06/10 10:35:12;;;;;;;4.72;2.87;;;;;;;20.48;64.23;100831.73;;;;-52
2021/06/10 10:38:13;;;;;;;4.27;2.75;;;;;;;20.49;64.21;100828.31;;;;-49
2021/06/10 10:41:12;;;;;;;4.92;2.75;;;;;;;20.50;64.26;100825.45;;;;-52
2021/06/10 10:44:18;;;;;;;3.36;2.75;;;;;;;20.51;64.12;100822.39;;;;-62
2021/06/10 10:47:14;;;;;;;2.94;2.53;;;;;;;20.51;64.11;100817.17;;;;-56
2021/06/10 10:50:17;;;;;;;4.17;2.50;;;;;;;20.52;64.13;100812.61;;;;-58
2021/06/10 10:53:15;;;;;;;5.09;2.71;;;;;;;20.52;64.11;100809.34;;;;-53
2021/06/10 10:56:12;;;;;;;3.71;2.69;;;;;;;20.53;64.25;100799.84;;;;-52
2021/06/10 10:59:12;;;;;;;5.42;2.83;;;;;;;20.53;63.81;100808.55;;;;-51
2021/06/10 11:02:14;;;;;;;9.32;2.89;;;;;;;20.51;63.87;100806.02;;;;-53
2021/06/10 11:05:12;;;;;;;4.97;2.75;;;;;;;20.50;64.24;100803.34;;;;-51
2021/06/10 11:08:12;;;;;;;6.12;2.73;;;;;;;20.51;64.01;100799.83;;;;-52
2021/06/10 11:11:12;;;;;;;3.89;2.72;;;;;;;20.50;64.00;100800.56;;;;-52
2021/06/10 11:14:12;;;;;;;4.31;2.75;;;;;;;20.49;63.91;100797.45;;;;-54
2021/06/10 11:17:12;;;;;;;4.18;2.79;;;;;;;20.49;63.95;100797.21;;;;-55
2021/06/10 11:20:14;;;;;;;4.29;2.80;;;;;;;20.48;63.84;100798.77;;;;-55
2021/06/10 11:23:12;;;;;;;4.04;2.65;;;;;;;20.47;63.80;100798.09;;;;-55
2021/06/10 11:26:12;;;;;;;4.68;2.76;;;;;;;20.46;63.84;100794.59;;;;-54
2021/06/10 11:29:14;;;;;;;3.43;2.75;;;;;;;20.46;63.76;100795.48;;;;-54
2021/06/10 11:32:12;;;;;;;4.68;2.65;;;;;;;20.46;63.79;100792.48;;;;-52
2021/06/10 11:35:12;;;;;;;4.30;2.55;;;;;;;20.46;63.70;100796.44;;;;-52
2021/06/10 11:38:13;;;;;;;4.95;2.95;;;;;;;20.44;63.64;100792.22;;;;-51
2021/06/10 11:41:12;;;;;;;4.68;2.70;;;;;;;20.45;63.63;100785.86;;;;-52
2021/06/10 11:44:12;;;;;;;4.11;2.60;;;;;;;20.44;63.60;100780.25;;;;-52
2021/06/10 11:47:12;;;;;;;3.09;2.50;;;;;;;20.44;63.50;100776.07;;;;-52
2021/06/10 11:50:12;;;;;;;3.16;2.59;;;;;;;20.43;63.56;100775.75;;;;-51
2021/06/10 11:53:17;;;;;;;4.18;2.60;;;;;;;20.43;63.54;100776.08;;;;-55
2021/06/10 11:56:12;;;;;;;3.90;2.50;;;;;;;20.42;63.43;100771.84;;;;-55
2021/06/10 11:59:12;;;;;;;5.50;2.60;;;;;;;20.43;63.35;100772.83;;;;-55
2021/06/10 12:02:12;;;;;;;3.49;2.63;;;;;;;20.42;63.34;100765.74;;;;-54
2021/06/10 12:05:15;;;;;;;2.86;2.48;;;;;;;20.42;63.45;100767.09;;;;-55
2021/06/10 12:08:12;;;;;;;3.36;2.63;;;;;;;20.42;63.37;100761.64;;;;-51
2021/06/10 12:11:13;;;;;;;2.90;2.59;;;;;;;20.41;63.39;100752.78;;;;-52
2021/06/10 12:14:12;;;;;;;5.15;2.71;;;;;;;20.43;63.76;100754.26;;;;-44
2021/06/10 12:17:12;;;;;;;3.32;2.69;;;;;;;20.43;63.58;100765.66;;;;-46
2021/06/10 12:20:12;;;;;;;4.52;2.61;;;;;;;20.42;63.58;100761.75;;;;-51
2021/06/10 12:23:12;;;;;;;6.69;2.78;;;;;;;20.43;63.93;100751.81;;;;-51
2021/06/10 12:26:12;;;;;;;4.48;2.89;;;;;;;20.46;64.26;100746.62;;;;-50
2021/06/10 12:29:12;;;;;;;7.20;3.07;;;;;;;20.48;64.36;100746.22;;;;-48
2021/06/10 12:32:12;;;;;;;5.29;2.98;;;;;;;20.48;64.37;100749.75;;;;-48
2021/06/10 12:35:12;;;;;;;7.05;3.00;;;;;;;20.47;64.35;100740.85;;;;-52
2021/06/10 12:38:12;;;;;;;6.18;2.96;;;;;;;20.47;64.36;100738.33;;;;-52
2021/06/10 12:41:12;;;;;;;4.91;3.03;;;;;;;20.46;64.35;100737.36;;;;-48
2021/06/10 12:44:12;;;;;;;5.47;3.09;;;;;;;20.46;64.26;100740.27;;;;-48
2021/06/10 12:47:18;;;;;;;6.04;2.87;;;;;;;20.45;64.03;100744.83;;;;-48
2021/06/10 12:50:12;;;;;;;4.15;2.89;;;;;;;20.45;64.00;100738.81;;;;-48
2021/06/10 12:53:16;;;;;;;5.98;3.07;;;;;;;20.44;63.93;100735.56;;;;-48
2021/06/10 12:56:12;;;;;;;4.43;3.08;;;;;;;20.44;64.01;100731.21;;;;-49
2021/06/10 12:59:12;;;;;;;5.25;3.01;;;;;;;20.44;63.83;100727.72;;;;-52
2021/06/10 13:02:12;;;;;;;3.94;3.02;;;;;;;20.43;63.78;100715.42;;;;-52
2021/06/10 13:05:13;;;;;;;8.31;3.01;;;;;;;20.43;63.84;100708.51;;;;-51
2021/06/10 13:08:13;;;;;;;4.11;3.09;;;;;;;20.43;63.80;100701.75;;;;-52
2021/06/10 13:11:12;;;;;;;6.97;2.92;;;;;;;20.43;63.71;100704.93;;;;-52
2021/06/10 13:14:12;;;;;;;3.91;2.75;;;;;;;20.42;63.60;100704.20;;;;-52
2021/06/10 13:17:12;;;;;;;4.09;2.89;;;;;;;20.42;63.57;100702.81;;;;-52
2021/06/10 13:20:12;;;;;;;4.83;3.07;;;;;;;20.42;63.61;100697.25;;;;-48
2021/06/10 13:23:12;;;;;;;4.43;3.15;;;;;;;20.41;63.58;100697.75;;;;-51
2021/06/10 13:26:15;;;;;;;6.22;2.73;;;;;;;20.41;63.44;100693.84;;;;-52
2021/06/10 13:29:13;;;;;;;3.21;2.81;;;;;;;20.41;63.52;100692.86;;;;-52
2021/06/10 13:32:12;;;;;;;4.69;2.77;;;;;;;20.40;63.52;100687.09;;;;-50
2021/06/10 13:35:19;;;;;;;3.75;2.70;;;;;;;20.41;63.50;100684.31;;;;-48
2021/06/10 13:38:12;;;;;;;3.63;2.81;;;;;;;20.40;63.45;100683.67;;;;-48
2021/06/10 13:41:13;;;;;;;3.71;2.81;;;;;;;20.41;63.47;100688.96;;;;-48
2021/06/10 13:44:12;;;;;;;3.75;2.77;;;;;;;20.40;63.40;100684.73;;;;-47
2021/06/10 13:47:12;;;;;;;5.40;3.02;;;;;;;20.39;63.36;100677.87;;;;-51
2021/06/10 13:50:13;;;;;;;4.45;2.80;;;;;;;20.40;63.21;100674.72;;;;-51
2021/06/10 13:53:12;;;;;;;3.82;2.70;;;;;;;20.41;63.45;100666.41;;;;-51
2021/06/10 13:56:12;;;;;;;5.13;2.86;;;;;;;20.41;63.52;100668.53;;;;-49
2021/06/10 13:59:12;;;;;;;6.34;2.81;;;;;;;20.38;63.60;100659.81;;;;-49
2021/06/10 14:02:12;;;;;;;4.33;2.79;;;;;;;20.39;63.63;100659.72;;;;-50
2021/06/10 14:05:12;;;;;;;5.40;2.74;;;;;;;20.39;63.59;100659.16;;;;-51
2021/06/10 14:08:12;;;;;;;4.25;2.81;;;;;;;20.38;63.45;100655.33;;;;-51
2021/06/10 14:11:13;;;;;;;5.10;2.99;;;;;;;20.38;63.47;100650.37;;;;-51
2021/06/10 14:14:12;;;;;;;4.43;2.93;;;;;;;20.37;63.41;100645.95;;;;-50
2021/06/10 14:17:12;;;;;;;4.07;2.85;;;;;;;20.38;63.34;100647.44;;;;-49
2021/06/10 14:20:12;;;;;;;4.11;2.81;;;;;;;20.37;63.46;100645.55;;;;-49
2021/06/10 14:23:12;;;;;;;4.23;2.81;;;;;;;20.37;63.38;100646.44;;;;-49
2021/06/10 14:26:12;;;;;;;3.79;2.83;;;;;;;20.38;63.39;100639.95;;;;-49
2021/06/10 14:29:25;;;;;;;4.11;2.79;;;;;;;20.36;63.36;100634.23;;;;-49
2021/06/10 14:32:21;;;;;;;3.31;3.00;;;;;;;20.36;63.26;100634.32;;;;-49
2021/06/10 14:35:12;;;;;;;3.35;3.00;;;;;;;20.37;63.24;100636.76;;;;-51
2021/06/10 14:38:12;;;;;;;5.97;2.81;;;;;;;20.37;63.22;100634.07;;;;-51
2021/06/10 14:41:12;;;;;;;4.86;2.67;;;;;;;20.37;63.27;100638.39;;;;-51
2021/06/10 14:44:12;;;;;;;3.53;2.83;;;;;;;20.36;63.26;100638.48;;;;-50
2021/06/10 14:47:12;;;;;;;3.19;2.78;;;;;;;20.36;63.26;100642.30;;;;-50
2021/06/10 14:50:12;;;;;;;3.41;2.67;;;;;;;20.36;63.22;100644.91;;;;-49
2021/06/10 14:53:12;;;;;;;3.77;2.79;;;;;;;20.36;63.20;100644.39;;;;-49
2021/06/10 14:56:12;;;;;;;2.97;2.67;;;;;;;20.35;63.18;100650.17;;;;-49
2021/06/10 14:59:12;;;;;;;3.53;2.79;;;;;;;20.36;63.22;100644.66;;;;-50
2021/06/10 15:02:12;;;;;;;4.05;2.81;;;;;;;20.36;63.17;100637.88;;;;-50
2021/06/10 15:05:12;;;;;;;2.95;2.70;;;;;;;20.36;63.17;100636.91;;;;-50
2021/06/10 15:08:12;;;;;;;4.05;2.76;;;;;;;20.36;63.11;100633.32;;;;-51
2021/06/10 15:11:12;;;;;;;3.19;2.74;;;;;;;20.36;63.11;100638.31;;;;-51
2021/06/10 15:14:12;;;;;;;3.55;2.77;;;;;;;20.35;63.12;100638.94;;;;-51
2021/06/10 15:17:12;;;;;;;3.08;2.79;;;;;;;20.36;63.06;100637.55;;;;-52
2021/06/10 15:20:12;;;;;;;4.00;2.63;;;;;;;20.35;63.01;100638.05;;;;-52
2021/06/10 15:23:12;;;;;;;2.91;2.65;;;;;;;20.35;63.11;100635.19;;;;-52
2021/06/10 15:26:12;;;;;;;4.44;2.79;;;;;;;20.35;63.06;100639.42;;;;-52
2021/06/10 15:29:12;;;;;;;3.22;2.70;;;;;;;20.36;62.98;100637.23;;;;-51
2021/06/10 15:32:12;;;;;;;3.62;2.77;;;;;;;20.36;62.90;100638.97;;;;-51
2021/06/10 15:35:12;;;;;;;3.47;2.59;;;;;;;20.35;62.99;100640.00;;;;-52
2021/06/10 15:38:12;;;;;;;3.10;2.80;;;;;;;20.36;62.95;100640.16;;;;-52
2021/06/10 15:41:12;;;;;;;3.03;2.73;;;;;;;20.35;62.91;100637.88;;;;-51
2021/06/10 15:44:12;;;;;;;4.88;2.67;;;;;;;20.36;63.21;100636.73;;;;-56
2021/06/10 15:47:12;;;;;;;3.48;2.68;;;;;;;20.37;63.20;100635.53;;;;-53
2021/06/10 15:50:12;;;;;;;4.65;2.81;;;;;;;20.41;63.47;100638.56;;;;-54
2021/06/10 15:53:12;;;;;;;5.01;2.85;;;;;;;20.44;63.63;100640.64;;;;-53
2021/06/10 15:56:12;;;;;;;6.81;2.85;;;;;;;20.47;63.66;100636.48;;;;-58
2021/06/10 15:59:12;;;;;;;6.36;3.55;;;;;;;20.51;64.13;100633.41;;;;-54
2021/06/10 16:02:12;;;;;;;13.25;3.33;;;;;;;20.53;63.97;100629.84;;;;-59
2021/06/10 16:05:12;;;;;;;7.06;2.85;;;;;;;20.54;63.92;100631.05;;;;-56
2021/06/10 16:08:12;;;;;;;4.85;3.01;;;;;;;20.55;63.69;100630.34;;;;-57
2021/06/10 16:11:12;;;;;;;7.44;3.11;;;;;;;20.55;63.82;100631.97;;;;-60
2021/06/10 16:14:12;;;;;;;7.01;3.31;;;;;;;20.56;63.74;100634.33;;;;-58
2021/06/10 16:17:13;;;;;;;4.54;3.15;;;;;;;20.57;63.66;100631.00;;;;-48
2021/06/10 16:20:12;;;;;;;5.50;3.04;;;;;;;20.58;63.87;100631.44;;;;-48
2021/06/10 16:23:12;;;;;;;7.20;3.06;;;;;;;20.58;63.74;100633.55;;;;-49
2021/06/10 16:26:12;;;;;;;6.35;2.95;;;;;;;20.59;63.80;100630.15;;;;-51
2021/06/10 16:29:13;;;;;;;4.51;3.15;;;;;;;20.59;63.81;100629.17;;;;-51
2021/06/10 16:32:13;;;;;;;7.02;3.24;;;;;;;20.60;63.83;100626.97;;;;-49
2021/06/10 16:35:14;;;;;;;5.68;2.93;;;;;;;20.61;63.74;100624.70;;;;-48
2021/06/10 16:38:12;;;;;;;4.66;2.75;;;;;;;20.62;63.74;100625.92;;;;-52
2021/06/10 16:41:12;;;;;;;4.29;3.03;;;;;;;20.63;63.64;100625.53;;;;-51
2021/06/10 16:44:12;;;;;;;6.57;2.82;;;;;;;20.64;63.61;100623.97;;;;-49